JES3161 SABE-SAZN
Flight info
| Callsign | JES3161 |
|---|---|
| Flight time | 1h 1m |
| Altitude | 32000 |
| Route | PAL9 TORUL UT654 BIXIM UT669 ROPON ROPON3Q |
| Aircraft | A320/M-SDE3FGHIRWY/LB1 |
Departure
| Time | 2026-05-05 13:37 |
|---|---|
| Airport | Aeroparque Jorge Newbery (SABE) |
Arrival
| Time | 2026-05-05 14:38 |
|---|---|
| Airport | Presidente Perón International Airport (SAZN) |
| Time | Latitude | Longitude | Altitude | Speed | Heading |
|---|---|---|---|---|---|
| 2026-05-05 13:05 | -34.55841 | -58.41371 | 26 ft | 0 kts | 207° |
| 2026-05-05 13:26 | -34.55821 | -58.41359 | 30 ft | 4 kts | 215° |
| 2026-05-05 13:26 | -34.55808 | -58.41340 | 29 ft | 4 kts | 295° |
| 2026-05-05 13:27 | -34.55820 | -58.41314 | 28 ft | 4 kts | 301° |
| 2026-05-05 13:27 | -34.55829 | -58.41297 | 28 ft | 0 kts | 301° |
| 2026-05-05 13:29 | -34.55823 | -58.41308 | 29 ft | 4 kts | 301° |
| 2026-05-05 13:30 | -34.55802 | -58.41348 | 30 ft | 7 kts | 304° |
| 2026-05-05 13:30 | -34.55783 | -58.41382 | 27 ft | 8 kts | 304° |
| 2026-05-05 13:30 | -34.55749 | -58.41443 | 26 ft | 10 kts | 301° |
| 2026-05-05 13:30 | -34.55722 | -58.41525 | 26 ft | 11 kts | 269° |
| 2026-05-05 13:31 | -34.55777 | -58.41596 | 25 ft | 12 kts | 223° |
| 2026-05-05 13:31 | -34.55762 | -58.41691 | 29 ft | 13 kts | 296° |
| 2026-05-05 13:31 | -34.55715 | -58.41795 | 29 ft | 15 kts | 303° |
| 2026-05-05 13:31 | -34.55652 | -58.41907 | 28 ft | 17 kts | 304° |
| 2026-05-05 13:32 | -34.55584 | -58.42029 | 28 ft | 18 kts | 304° |
| 2026-05-05 13:32 | -34.55514 | -58.42142 | 29 ft | 15 kts | 307° |
| 2026-05-05 13:32 | -34.55452 | -58.42243 | 28 ft | 12 kts | 307° |
| 2026-05-05 13:32 | -34.55402 | -58.42323 | 25 ft | 11 kts | 307° |
| 2026-05-05 13:33 | -34.55377 | -58.42364 | 26 ft | 4 kts | 300° |
| 2026-05-05 13:33 | -34.55376 | -58.42370 | 26 ft | 0 kts | 292° |
| 2026-05-05 13:34 | -34.55375 | -58.42371 | 26 ft | 1 kts | 292° |
| 2026-05-05 13:35 | -34.55372 | -58.42384 | 29 ft | 3 kts | 287° |
| 2026-05-05 13:35 | -34.55364 | -58.42428 | 25 ft | 6 kts | 281° |
| 2026-05-05 13:35 | -34.55368 | -58.42487 | 25 ft | 8 kts | 238° |
| 2026-05-05 13:35 | -34.55414 | -58.42497 | 30 ft | 8 kts | 136° |
| 2026-05-05 13:36 | -34.55420 | -58.42484 | 27 ft | 0 kts | 121° |
| 2026-05-05 13:36 | -34.55458 | -58.42410 | 26 ft | 38 kts | 122° |
| 2026-05-05 13:36 | -34.55753 | -58.41882 | 28 ft | 109 kts | 124° |
| 2026-05-05 13:36 | -34.56285 | -58.40931 | 30 ft | 161 kts | 124° |
| 2026-05-05 13:37 | -34.56936 | -58.39782 | 587 ft | 165 kts | 123° |
| 2026-05-05 13:37 | -34.57576 | -58.38620 | 1280 ft | 167 kts | 118° |
| 2026-05-05 13:37 | -34.57886 | -58.37188 | 1630 ft | 185 kts | 85° |
| 2026-05-05 13:37 | -34.57373 | -58.35729 | 1913 ft | 199 kts | 45° |
| 2026-05-05 13:38 | -34.56353 | -58.34504 | 2222 ft | 217 kts | 44° |
| 2026-05-05 13:38 | -34.55246 | -58.33099 | 2550 ft | 242 kts | 46° |
| 2026-05-05 13:38 | -34.54061 | -58.31517 | 3019 ft | 262 kts | 46° |
| 2026-05-05 13:38 | -34.52688 | -58.30048 | 3769 ft | 266 kts | 27° |
| 2026-05-05 13:39 | -34.50966 | -58.29307 | 4614 ft | 262 kts | 3° |
| 2026-05-05 13:39 | -34.49180 | -58.29446 | 5514 ft | 256 kts | 340° |
| 2026-05-05 13:39 | -34.47627 | -58.30432 | 6395 ft | 252 kts | 318° |
| 2026-05-05 13:39 | -34.46544 | -58.32089 | 7194 ft | 255 kts | 296° |
| 2026-05-05 13:40 | -34.46111 | -58.34184 | 7931 ft | 262 kts | 274° |
| 2026-05-05 13:40 | -34.46450 | -58.36384 | 8674 ft | 273 kts | 250° |
| 2026-05-05 13:40 | -34.47572 | -58.38293 | 9410 ft | 286 kts | 229° |
| 2026-05-05 13:40 | -34.49008 | -58.39983 | 10115 ft | 289 kts | 229° |
| 2026-05-05 13:41 | -34.50496 | -58.41724 | 10421 ft | 308 kts | 229° |
| 2026-05-05 13:41 | -34.52091 | -58.43597 | 10549 ft | 330 kts | 229° |
| 2026-05-05 13:41 | -34.53781 | -58.45585 | 10813 ft | 345 kts | 228° |
| 2026-05-05 13:41 | -34.55543 | -58.47652 | 11354 ft | 350 kts | 228° |
| 2026-05-05 13:42 | -34.57302 | -58.49713 | 11959 ft | 353 kts | 228° |
| 2026-05-05 13:42 | -34.59075 | -58.51790 | 12545 ft | 356 kts | 228° |
| 2026-05-05 13:42 | -34.60859 | -58.53884 | 13161 ft | 358 kts | 228° |
| 2026-05-05 13:42 | -34.62651 | -58.55996 | 13797 ft | 360 kts | 229° |
| 2026-05-05 13:43 | -34.64453 | -58.58125 | 14368 ft | 362 kts | 229° |
| 2026-05-05 13:43 | -34.66259 | -58.60265 | 15002 ft | 363 kts | 229° |
| 2026-05-05 13:43 | -34.68070 | -58.62413 | 15583 ft | 364 kts | 229° |
| 2026-05-05 13:43 | -34.69888 | -58.64570 | 16168 ft | 366 kts | 229° |
| 2026-05-05 13:44 | -34.71708 | -58.66727 | 16754 ft | 367 kts | 229° |
| 2026-05-05 13:44 | -34.73540 | -58.68896 | 17353 ft | 368 kts | 229° |
| 2026-05-05 13:44 | -34.75376 | -58.71075 | 17945 ft | 370 kts | 229° |
| 2026-05-05 13:44 | -34.77221 | -58.73264 | 18514 ft | 371 kts | 230° |
| 2026-05-05 13:45 | -34.79077 | -58.75463 | 19028 ft | 373 kts | 230° |
| 2026-05-05 13:45 | -34.80942 | -58.77675 | 19536 ft | 375 kts | 230° |
| 2026-05-05 13:45 | -34.82817 | -58.79902 | 20055 ft | 377 kts | 230° |
| 2026-05-05 13:45 | -34.84698 | -58.82140 | 20570 ft | 379 kts | 230° |
| 2026-05-05 13:46 | -34.86590 | -58.84392 | 21057 ft | 381 kts | 230° |
| 2026-05-05 13:46 | -34.88491 | -58.86658 | 21538 ft | 383 kts | 230° |
| 2026-05-05 13:46 | -34.90399 | -58.88939 | 21981 ft | 385 kts | 230° |
| 2026-05-05 13:46 | -34.92316 | -58.91232 | 22433 ft | 387 kts | 230° |
| 2026-05-05 13:47 | -34.94246 | -58.93536 | 22891 ft | 389 kts | 230° |
| 2026-05-05 13:47 | -34.96185 | -58.95853 | 23345 ft | 391 kts | 230° |
| 2026-05-05 13:47 | -34.98135 | -58.98184 | 23750 ft | 393 kts | 230° |
| 2026-05-05 13:47 | -35.00095 | -59.00528 | 24115 ft | 395 kts | 230° |
| 2026-05-05 13:48 | -35.02065 | -59.02883 | 24470 ft | 397 kts | 230° |
| 2026-05-05 13:48 | -35.04043 | -59.05252 | 24824 ft | 399 kts | 230° |
| 2026-05-05 13:48 | -35.06029 | -59.07636 | 25165 ft | 401 kts | 230° |
| 2026-05-05 13:48 | -35.08020 | -59.10031 | 25509 ft | 403 kts | 229° |
| 2026-05-05 13:49 | -35.10049 | -59.12473 | 25850 ft | 405 kts | 229° |
| 2026-05-05 13:49 | -35.12063 | -59.14895 | 26194 ft | 407 kts | 229° |
| 2026-05-05 13:49 | -35.14089 | -59.17329 | 26536 ft | 409 kts | 229° |
| 2026-05-05 13:49 | -35.16125 | -59.19778 | 26882 ft | 412 kts | 229° |
| 2026-05-05 13:50 | -35.18170 | -59.22241 | 27220 ft | 414 kts | 229° |
| 2026-05-05 13:50 | -35.20220 | -59.24713 | 27559 ft | 416 kts | 229° |
| 2026-05-05 13:50 | -35.22285 | -59.27204 | 27886 ft | 418 kts | 229° |
| 2026-05-05 13:50 | -35.24363 | -59.29709 | 28235 ft | 420 kts | 229° |
| 2026-05-05 13:51 | -35.26439 | -59.32214 | 28702 ft | 418 kts | 229° |
| 2026-05-05 13:51 | -35.28509 | -59.34712 | 29176 ft | 417 kts | 229° |
| 2026-05-05 13:51 | -35.30568 | -59.37204 | 29659 ft | 416 kts | 229° |
| 2026-05-05 13:51 | -35.32625 | -59.39697 | 30119 ft | 415 kts | 229° |
| 2026-05-05 13:52 | -35.34675 | -59.42182 | 30515 ft | 414 kts | 229° |
| 2026-05-05 13:52 | -35.36612 | -59.44767 | 30922 ft | 409 kts | 236° |
| 2026-05-05 13:52 | -35.38279 | -59.47579 | 31328 ft | 407 kts | 238° |
| 2026-05-05 13:52 | -35.39923 | -59.50394 | 31745 ft | 406 kts | 238° |
| 2026-05-05 13:53 | -35.41566 | -59.53206 | 31978 ft | 406 kts | 238° |
| 2026-05-05 13:53 | -35.43217 | -59.56030 | 32030 ft | 410 kts | 238° |
| 2026-05-05 13:53 | -35.46563 | -59.61753 | 32028 ft | 414 kts | 238° |
| 2026-05-05 13:54 | -35.49921 | -59.67495 | 32027 ft | 414 kts | 238° |
| 2026-05-05 13:54 | -35.53274 | -59.73237 | 32027 ft | 414 kts | 238° |
| 2026-05-05 13:55 | -35.56621 | -59.78989 | 32027 ft | 414 kts | 238° |
| 2026-05-05 13:55 | -35.59982 | -59.84784 | 32032 ft | 414 kts | 238° |
| 2026-05-05 13:56 | -35.63322 | -59.90550 | 32036 ft | 414 kts | 238° |
| 2026-05-05 13:56 | -35.66663 | -59.96317 | 32040 ft | 414 kts | 238° |
| 2026-05-05 13:57 | -35.70001 | -60.02086 | 32044 ft | 414 kts | 238° |
| 2026-05-05 13:57 | -35.74764 | -60.10353 | 32047 ft | 413 kts | 238° |
| 2026-05-05 13:58 | -35.81421 | -60.21906 | 32047 ft | 413 kts | 238° |
| 2026-05-05 13:58 | -35.88035 | -60.33474 | 32050 ft | 412 kts | 238° |
| 2026-05-05 13:59 | -35.97933 | -60.50803 | 32048 ft | 412 kts | 239° |
| 2026-05-05 14:00 | -36.06728 | -60.66282 | 32045 ft | 411 kts | 239° |
| 2026-05-05 14:00 | -36.14328 | -60.79729 | 32044 ft | 410 kts | 239° |
| 2026-05-05 14:01 | -36.20828 | -60.91318 | 32052 ft | 409 kts | 239° |
| 2026-05-05 14:01 | -36.27288 | -61.02914 | 32045 ft | 409 kts | 239° |
| 2026-05-05 14:02 | -36.33783 | -61.14603 | 32045 ft | 409 kts | 239° |
| 2026-05-05 14:02 | -36.39132 | -61.24266 | 32043 ft | 408 kts | 240° |
| 2026-05-05 14:03 | -36.45555 | -61.35881 | 32050 ft | 408 kts | 240° |
| 2026-05-05 14:03 | -36.51952 | -61.47507 | 32046 ft | 407 kts | 240° |
| 2026-05-05 14:04 | -36.58332 | -61.59138 | 32049 ft | 407 kts | 240° |
| 2026-05-05 14:04 | -36.64699 | -61.70775 | 32044 ft | 407 kts | 240° |
| 2026-05-05 14:05 | -36.71049 | -61.82421 | 32041 ft | 406 kts | 240° |
| 2026-05-05 14:05 | -36.77380 | -61.94100 | 32043 ft | 406 kts | 240° |
| 2026-05-05 14:06 | -36.83713 | -62.05792 | 32041 ft | 406 kts | 240° |
| 2026-05-05 14:06 | -36.90064 | -62.17570 | 32041 ft | 406 kts | 241° |
| 2026-05-05 14:07 | -36.96322 | -62.29237 | 32040 ft | 406 kts | 241° |
| 2026-05-05 14:07 | -37.02657 | -62.41059 | 32044 ft | 406 kts | 241° |
| 2026-05-05 14:08 | -37.08929 | -62.52817 | 32043 ft | 406 kts | 242° |
| 2026-05-05 14:08 | -37.15170 | -62.64574 | 32043 ft | 405 kts | 242° |
| 2026-05-05 14:09 | -37.21408 | -62.76339 | 32041 ft | 405 kts | 242° |
| 2026-05-05 14:09 | -37.27617 | -62.88105 | 32040 ft | 404 kts | 242° |
| 2026-05-05 14:10 | -37.33814 | -62.99862 | 32042 ft | 403 kts | 242° |
| 2026-05-05 14:10 | -37.38769 | -63.12277 | 32042 ft | 397 kts | 250° |
| 2026-05-05 14:11 | -37.43510 | -63.24810 | 32047 ft | 396 kts | 250° |
| 2026-05-05 14:11 | -37.48223 | -63.37344 | 32038 ft | 396 kts | 250° |
| 2026-05-05 14:12 | -37.52930 | -63.49866 | 32026 ft | 395 kts | 250° |
| 2026-05-05 14:12 | -37.57600 | -63.62392 | 32029 ft | 395 kts | 250° |
| 2026-05-05 14:13 | -37.62260 | -63.74932 | 32033 ft | 394 kts | 250° |
| 2026-05-05 14:13 | -37.66899 | -63.87472 | 32034 ft | 394 kts | 250° |
| 2026-05-05 14:14 | -37.71525 | -63.99993 | 32039 ft | 393 kts | 251° |
| 2026-05-05 14:14 | -37.76165 | -64.12607 | 32038 ft | 393 kts | 251° |
| 2026-05-05 14:15 | -37.80748 | -64.25135 | 32043 ft | 392 kts | 251° |
| 2026-05-05 14:15 | -37.85303 | -64.37668 | 32038 ft | 392 kts | 251° |
| 2026-05-05 14:16 | -37.89843 | -64.50195 | 32035 ft | 391 kts | 251° |
| 2026-05-05 14:16 | -37.94375 | -64.62707 | 32034 ft | 391 kts | 251° |
| 2026-05-05 14:17 | -37.98873 | -64.75247 | 32037 ft | 391 kts | 251° |
| 2026-05-05 14:17 | -38.03367 | -64.87784 | 32035 ft | 390 kts | 251° |
| 2026-05-05 14:18 | -38.07844 | -65.00337 | 32035 ft | 390 kts | 251° |
| 2026-05-05 14:18 | -38.12306 | -65.12877 | 32035 ft | 389 kts | 252° |
| 2026-05-05 14:19 | -38.16737 | -65.25426 | 32024 ft | 389 kts | 252° |
| 2026-05-05 14:19 | -38.21153 | -65.37961 | 32032 ft | 389 kts | 252° |
| 2026-05-05 14:20 | -38.25561 | -65.50509 | 32028 ft | 388 kts | 252° |
| 2026-05-05 14:20 | -38.29940 | -65.63067 | 32031 ft | 388 kts | 252° |
| 2026-05-05 14:21 | -38.34307 | -65.75618 | 32030 ft | 387 kts | 252° |
| 2026-05-05 14:21 | -38.38680 | -65.88241 | 32024 ft | 387 kts | 252° |
| 2026-05-05 14:22 | -38.43016 | -66.00792 | 32022 ft | 387 kts | 252° |
| 2026-05-05 14:22 | -38.47375 | -66.13335 | 32020 ft | 387 kts | 252° |
| 2026-05-05 14:23 | -38.51713 | -66.25895 | 32026 ft | 386 kts | 252° |
| 2026-05-05 14:23 | -38.53883 | -66.32189 | 31592 ft | 387 kts | 252° |
| 2026-05-05 14:23 | -38.56038 | -66.38447 | 30714 ft | 382 kts | 252° |
| 2026-05-05 14:24 | -38.58152 | -66.44603 | 29591 ft | 376 kts | 252° |
| 2026-05-05 14:24 | -38.60234 | -66.50665 | 28439 ft | 369 kts | 252° |
| 2026-05-05 14:24 | -38.62264 | -66.56612 | 27294 ft | 363 kts | 252° |
| 2026-05-05 14:24 | -38.64262 | -66.62497 | 26183 ft | 357 kts | 252° |
| 2026-05-05 14:25 | -38.66226 | -66.68275 | 25088 ft | 353 kts | 252° |
| 2026-05-05 14:25 | -38.68184 | -66.74005 | 24014 ft | 349 kts | 252° |
| 2026-05-05 14:25 | -38.70102 | -66.79649 | 22920 ft | 344 kts | 251° |
| 2026-05-05 14:25 | -38.71981 | -66.85200 | 21972 ft | 335 kts | 252° |
| 2026-05-05 14:26 | -38.73812 | -66.90626 | 21053 ft | 328 kts | 252° |
| 2026-05-05 14:26 | -38.75601 | -66.95930 | 20150 ft | 321 kts | 252° |
| 2026-05-05 14:26 | -38.77348 | -67.01121 | 19237 ft | 315 kts | 251° |
| 2026-05-05 14:26 | -38.78696 | -67.05124 | 18528 ft | 311 kts | 251° |
| 2026-05-05 14:27 | -38.80394 | -67.10197 | 17505 ft | 307 kts | 252° |
| 2026-05-05 14:27 | -38.82053 | -67.15167 | 16543 ft | 301 kts | 252° |
| 2026-05-05 14:27 | -38.83691 | -67.20069 | 15581 ft | 297 kts | 252° |
| 2026-05-05 14:27 | -38.85313 | -67.24920 | 14620 ft | 294 kts | 252° |
| 2026-05-05 14:28 | -38.86923 | -67.29742 | 13623 ft | 293 kts | 252° |
| 2026-05-05 14:28 | -38.88514 | -67.34541 | 12622 ft | 290 kts | 252° |
| 2026-05-05 14:28 | -38.90091 | -67.39294 | 11652 ft | 289 kts | 252° |
| 2026-05-05 14:28 | -38.91682 | -67.44105 | 10667 ft | 289 kts | 252° |
| 2026-05-05 14:29 | -38.93082 | -67.48314 | 10340 ft | 273 kts | 252° |
| 2026-05-05 14:29 | -38.93775 | -67.50528 | 10215 ft | 260 kts | 258° |
| 2026-05-05 14:29 | -38.94071 | -67.52750 | 10040 ft | 249 kts | 270° |
| 2026-05-05 14:29 | -38.94103 | -67.54952 | 9757 ft | 245 kts | 271° |
| 2026-05-05 14:30 | -38.94139 | -67.57143 | 9378 ft | 246 kts | 271° |
| 2026-05-05 14:30 | -38.94178 | -67.59341 | 8976 ft | 247 kts | 271° |
| 2026-05-05 14:30 | -38.94218 | -67.61551 | 8572 ft | 248 kts | 271° |
| 2026-05-05 14:30 | -38.94259 | -67.63777 | 8191 ft | 250 kts | 271° |
| 2026-05-05 14:31 | -38.94298 | -67.66012 | 7800 ft | 252 kts | 271° |
| 2026-05-05 14:31 | -38.94310 | -67.66745 | 7670 ft | 252 kts | 271° |
| 2026-05-05 14:31 | -38.94352 | -67.69217 | 7242 ft | 255 kts | 272° |
| 2026-05-05 14:31 | -38.94391 | -67.71503 | 6870 ft | 257 kts | 272° |
| 2026-05-05 14:32 | -38.94428 | -67.73800 | 6402 ft | 257 kts | 272° |
| 2026-05-05 14:32 | -38.94466 | -67.76109 | 5782 ft | 259 kts | 271° |
| 2026-05-05 14:32 | -38.94506 | -67.78346 | 5641 ft | 242 kts | 272° |
| 2026-05-05 14:32 | -38.94541 | -67.80449 | 5375 ft | 231 kts | 272° |
| 2026-05-05 14:33 | -38.94583 | -67.82509 | 4964 ft | 231 kts | 271° |
| 2026-05-05 14:33 | -38.94651 | -67.84563 | 4681 ft | 230 kts | 270° |
| 2026-05-05 14:33 | -38.94729 | -67.86612 | 4347 ft | 230 kts | 270° |
| 2026-05-05 14:33 | -38.94809 | -67.88660 | 4033 ft | 229 kts | 270° |
| 2026-05-05 14:34 | -38.94890 | -67.90705 | 3737 ft | 228 kts | 269° |
| 2026-05-05 14:34 | -38.94962 | -67.92699 | 3608 ft | 220 kts | 271° |
| 2026-05-05 14:34 | -38.94981 | -67.94624 | 3482 ft | 211 kts | 272° |
| 2026-05-05 14:34 | -38.94975 | -67.96472 | 3369 ft | 202 kts | 272° |
| 2026-05-05 14:35 | -38.94967 | -67.98187 | 3247 ft | 182 kts | 273° |
| 2026-05-05 14:35 | -38.94962 | -67.99266 | 3024 ft | 177 kts | 273° |
| 2026-05-05 14:35 | -38.94953 | -68.01249 | 2774 ft | 153 kts | 272° |
| 2026-05-05 14:35 | -38.94949 | -68.02161 | 2726 ft | 150 kts | 273° |
| 2026-05-05 14:36 | -38.94942 | -68.03493 | 2638 ft | 149 kts | 273° |
| 2026-05-05 14:36 | -38.94936 | -68.04813 | 2418 ft | 147 kts | 273° |
| 2026-05-05 14:36 | -38.94931 | -68.06130 | 2203 ft | 147 kts | 272° |
| 2026-05-05 14:36 | -38.94925 | -68.07443 | 1990 ft | 147 kts | 271° |
| 2026-05-05 14:37 | -38.94921 | -68.08761 | 1768 ft | 147 kts | 271° |
| 2026-05-05 14:37 | -38.94917 | -68.10078 | 1578 ft | 147 kts | 269° |
| 2026-05-05 14:37 | -38.94913 | -68.11395 | 1363 ft | 147 kts | 270° |
| 2026-05-05 14:37 | -38.94911 | -68.12710 | 1153 ft | 147 kts | 270° |
| 2026-05-05 14:38 | -38.94906 | -68.14026 | 945 ft | 147 kts | 271° |
| 2026-05-05 14:38 | -38.94902 | -68.15237 | 902 ft | 116 kts | 270° |
| 2026-05-05 14:38 | -38.94899 | -68.16010 | 906 ft | 52 kts | 270° |
| 2026-05-05 14:38 | -38.94902 | -68.16306 | 907 ft | 16 kts | 258° |
| 2026-05-05 14:39 | -38.94898 | -68.16390 | 903 ft | 4 kts | 10° |
| 2026-05-05 14:39 | -38.94898 | -68.16362 | 903 ft | 5 kts | 89° |
| 2026-05-05 14:39 | -38.94897 | -68.16273 | 903 ft | 15 kts | 89° |
| 2026-05-05 14:39 | -38.94897 | -68.16105 | 905 ft | 23 kts | 90° |
| 2026-05-05 14:40 | -38.94898 | -68.15891 | 906 ft | 25 kts | 90° |
| 2026-05-05 14:40 | -38.94899 | -68.15657 | 905 ft | 27 kts | 90° |
| 2026-05-05 14:40 | -38.94899 | -68.15408 | 904 ft | 29 kts | 89° |
| 2026-05-05 14:40 | -38.94907 | -68.15153 | 902 ft | 28 kts | 105° |
| 2026-05-05 14:41 | -38.95023 | -68.14978 | 903 ft | 25 kts | 136° |
| 2026-05-05 14:41 | -38.95091 | -68.14816 | 904 ft | 18 kts | 92° |
| 2026-05-05 14:41 | -38.95092 | -68.14676 | 904 ft | 16 kts | 90° |
| 2026-05-05 14:41 | -38.95093 | -68.14525 | 903 ft | 18 kts | 90° |
| 2026-05-05 14:42 | -38.95094 | -68.14354 | 904 ft | 20 kts | 90° |
| 2026-05-05 14:42 | -38.95094 | -68.14205 | 904 ft | 12 kts | 90° |
| 2026-05-05 14:42 | -38.95118 | -68.14156 | 904 ft | 7 kts | 172° |
| 2026-05-05 14:42 | -38.95151 | -68.14157 | 904 ft | 3 kts | 181° |
| 2026-05-05 14:43 | -38.95158 | -68.14157 | 904 ft | 0 kts | 180° |